sensor_id;sensor_type;location;lat;lon;timestamp;pressure;altitude;pressure_sealevel;temperature;humidity
29907;BME280;16776;50.958;10.994;2023-03-03T00:01:10;99029.59;;;0.99;88.04
29907;BME280;16776;50.958;10.994;2023-03-03T00:03:37;99032.16;;;1.01;87.50
29907;BME280;16776;50.958;10.994;2023-03-03T00:06:07;99024.53;;;0.99;87.78
29907;BME280;16776;50.958;10.994;2023-03-03T00:08:36;99023.66;;;0.99;87.78
29907;BME280;16776;50.958;10.994;2023-03-03T00:11:03;99019.34;;;0.93;88.10
29907;BME280;16776;50.958;10.994;2023-03-03T00:13:32;99015.09;;;0.92;88.29
29907;BME280;16776;50.958;10.994;2023-03-03T00:16:16;99028.72;;;0.97;88.73
29907;BME280;16776;50.958;10.994;2023-03-03T00:18:47;99030.31;;;0.92;88.76
29907;BME280;16776;50.958;10.994;2023-03-03T00:21:29;99027.88;;;0.98;89.63
29907;BME280;16776;50.958;10.994;2023-03-03T00:24:10;99024.47;;;0.96;89.45
29907;BME280;16776;50.958;10.994;2023-03-03T00:26:45;99024.47;;;0.96;88.44
29907;BME280;16776;50.958;10.994;2023-03-03T00:29:29;99022.06;;;1.04;88.88
29907;BME280;16776;50.958;10.994;2023-03-03T00:32:09;99022.88;;;1.01;88.80
29907;BME280;16776;50.958;10.994;2023-03-03T00:34:42;99021.91;;;0.96;88.08
29907;BME280;16776;50.958;10.994;2023-03-03T00:40:19;99038.06;;;1.00;88.60
29907;BME280;16776;50.958;10.994;2023-03-03T00:42:48;99032.84;;;0.92;88.50
29907;BME280;16776;50.958;10.994;2023-03-03T00:45:26;99029.53;;;0.95;89.22
29907;BME280;16776;50.958;10.994;2023-03-03T00:47:54;99024.31;;;0.87;88.09
29907;BME280;16776;50.958;10.994;2023-03-03T00:50:26;99036.19;;;0.91;88.61
29907;BME280;16776;50.958;10.994;2023-03-03T00:52:59;99036.19;;;0.91;89.27
29907;BME280;16776;50.958;10.994;2023-03-03T00:55:28;99030.34;;;0.94;88.80
29907;BME280;16776;50.958;10.994;2023-03-03T00:57:54;99031.00;;;0.85;88.26
29907;BME280;16776;50.958;10.994;2023-03-03T01:00:21;99036.16;;;0.88;88.59
29907;BME280;16776;50.958;10.994;2023-03-03T01:02:47;99030.25;;;0.88;88.51
29907;BME280;16776;50.958;10.994;2023-03-03T01:05:16;99037.03;;;0.89;88.39
29907;BME280;16776;50.958;10.994;2023-03-03T01:07:42;99033.56;;;0.87;88.45
29907;BME280;16776;50.958;10.994;2023-03-03T01:10:10;99025.16;;;0.88;88.58
29907;BME280;16776;50.958;10.994;2023-03-03T01:12:38;99025.16;;;0.89;88.62
29907;BME280;16776;50.958;10.994;2023-03-03T01:15:07;99025.16;;;0.89;88.39
29907;BME280;16776;50.958;10.994;2023-03-03T01:17:35;99029.38;;;0.87;88.54
29907;BME280;16776;50.958;10.994;2023-03-03T01:20:01;99025.09;;;0.86;88.76
29907;BME280;16776;50.958;10.994;2023-03-03T01:22:28;99027.63;;;0.86;88.88
29907;BME280;16776;50.958;10.994;2023-03-03T01:24:55;99027.63;;;0.86;88.73
29907;BME280;16776;50.958;10.994;2023-03-03T01:27:23;99027.69;;;0.88;88.89
29907;BME280;16776;50.958;10.994;2023-03-03T01:29:51;99020.09;;;0.89;88.75
29907;BME280;16776;50.958;10.994;2023-03-03T01:32:19;99028.56;;;0.88;88.78
29907;BME280;16776;50.958;10.994;2023-03-03T01:34:46;99025.09;;;0.86;88.87
29907;BME280;16776;50.958;10.994;2023-03-03T01:37:13;99029.38;;;0.87;88.97
29907;BME280;16776;50.958;10.994;2023-03-03T01:39:39;99034.44;;;0.87;88.81
29907;BME280;16776;50.958;10.994;2023-03-03T01:42:06;99031.94;;;0.89;89.23
29907;BME280;16776;50.958;10.994;2023-03-03T01:44:33;99033.63;;;0.90;89.24
29907;BME280;16776;50.958;10.994;2023-03-03T01:47:04;99031.13;;;0.91;89.02
29907;BME280;16776;50.958;10.994;2023-03-03T01:49:36;99034.50;;;0.90;89.18
29907;BME280;16776;50.958;10.994;2023-03-03T01:52:11;99050.56;;;0.91;89.00
29907;BME280;16776;50.958;10.994;2023-03-03T01:54:41;99045.34;;;0.85;88.66
29907;BME280;16776;50.958;10.994;2023-03-03T01:57:13;99047.03;;;0.84;89.17
29907;BME280;16776;50.958;10.994;2023-03-03T01:59:43;99048.63;;;0.79;88.44
29907;BME280;16776;50.958;10.994;2023-03-03T02:02:12;99044.34;;;0.77;88.98
29907;BME280;16776;50.958;10.994;2023-03-03T02:04:39;99040.91;;;0.73;88.41
29907;BME280;16776;50.958;10.994;2023-03-03T02:07:07;99040.91;;;0.73;89.09
29907;BME280;16776;50.958;10.994;2023-03-03T02:09:41;99037.47;;;0.71;88.99
29907;BME280;16776;50.958;10.994;2023-03-03T02:12:12;99037.44;;;0.68;89.13
29907;BME280;16776;50.958;10.994;2023-03-03T02:14:39;99028.06;;;0.65;89.07
29907;BME280;16776;50.958;10.994;2023-03-03T02:17:05;99028.94;;;0.66;89.17
29907;BME280;16776;50.958;10.994;2023-03-03T02:19:41;99025.63;;;0.70;90.02
29907;BME280;16776;50.958;10.994;2023-03-03T02:22:10;99023.88;;;0.66;89.40
29907;BME280;16776;50.958;10.994;2023-03-03T02:24:42;99022.25;;;0.71;89.27
29907;BME280;16776;50.958;10.994;2023-03-03T02:27:12;99022.22;;;0.68;89.69
29907;BME280;16776;50.958;10.994;2023-03-03T02:29:38;99018.88;;;0.69;89.62
29907;BME280;16776;50.958;10.994;2023-03-03T02:32:05;99011.25;;;0.69;89.33
29907;BME280;16776;50.958;10.994;2023-03-03T02:34:47;99018.97;;;0.75;90.12
29907;BME280;16776;50.958;10.994;2023-03-03T02:37:14;99008.72;;;0.69;89.39
29907;BME280;16776;50.958;10.994;2023-03-03T02:39:41;99021.41;;;0.71;89.43
29907;BME280;16776;50.958;10.994;2023-03-03T02:42:13;99024.88;;;0.74;89.39
29907;BME280;16776;50.958;10.994;2023-03-03T02:44:44;99020.53;;;0.69;89.59
29907;BME280;16776;50.958;10.994;2023-03-03T02:47:10;99020.59;;;0.72;89.20
29907;BME280;16776;50.958;10.994;2023-03-03T02:49:37;99015.56;;;0.73;89.66
29907;BME280;16776;50.958;10.994;2023-03-03T02:52:06;99015.59;;;0.75;89.26
29907;BME280;16776;50.958;10.994;2023-03-03T02:54:36;99018.94;;;0.74;88.99
29907;BME280;16776;50.958;10.994;2023-03-03T02:57:03;99013.84;;;0.72;89.41
29907;BME280;16776;50.958;10.994;2023-03-03T02:59:31;99018.97;;;0.75;89.41
29907;BME280;16776;50.958;10.994;2023-03-03T03:01:58;99028.22;;;0.73;89.50
29907;BME280;16776;50.958;10.994;2023-03-03T03:04:26;99039.22;;;0.74;89.66
29907;BME280;16776;50.958;10.994;2023-03-03T03:06:53;99026.56;;;0.74;89.81
29907;BME280;16776;50.958;10.994;2023-03-03T03:09:22;99028.25;;;0.75;89.65
29907;BME280;16776;50.958;10.994;2023-03-03T03:11:49;99025.69;;;0.73;89.21
29907;BME280;16776;50.958;10.994;2023-03-03T03:14:15;99021.41;;;0.69;89.33
29907;BME280;16776;50.958;10.994;2023-03-03T03:16:43;99029.00;;;0.69;89.26
29907;BME280;16776;50.958;10.994;2023-03-03T03:19:10;99035.72;;;0.67;89.30
29907;BME280;16776;50.958;10.994;2023-03-03T03:21:36;99034.81;;;0.65;89.60
29907;BME280;16776;50.958;10.994;2023-03-03T03:24:03;99041.56;;;0.64;89.55
29907;BME280;16776;50.958;10.994;2023-03-03T03:26:30;99039.03;;;0.63;89.14
29907;BME280;16776;50.958;10.994;2023-03-03T03:28:56;99042.38;;;0.62;89.04
29907;BME280;16776;50.958;10.994;2023-03-03T03:31:24;99046.63;;;0.63;89.11
29907;BME280;16776;50.958;10.994;2023-03-03T03:33:52;99040.66;;;0.61;89.63
29907;BME280;16776;50.958;10.994;2023-03-03T03:36:19;99043.13;;;0.56;89.24
29907;BME280;16776;50.958;10.994;2023-03-03T03:38:45;99043.94;;;0.57;89.35
29907;BME280;16776;50.958;10.994;2023-03-03T03:41:12;99042.25;;;0.56;89.16
29907;BME280;16776;50.958;10.994;2023-03-03T03:43:39;99034.63;;;0.54;89.38
29907;BME280;16776;50.958;10.994;2023-03-03T03:46:05;99033.78;;;0.54;89.59
29907;BME280;16776;50.958;10.994;2023-03-03T03:48:32;99042.19;;;0.53;89.82
29907;BME280;16776;50.958;10.994;2023-03-03T03:51:00;99049.84;;;0.54;89.62
29907;BME280;16776;50.958;10.994;2023-03-03T03:53:26;99048.06;;;0.50;88.87
29907;BME280;16776;50.958;10.994;2023-03-03T03:55:53;99037.91;;;0.49;89.19
29907;BME280;16776;50.958;10.994;2023-03-03T03:58:20;99034.47;;;0.47;89.09
29907;BME280;16776;50.958;10.994;2023-03-03T04:00:46;99032.72;;;0.44;89.00
29907;BME280;16776;50.958;10.994;2023-03-03T04:03:13;99024.25;;;0.42;89.33
29907;BME280;16776;50.958;10.994;2023-03-03T04:05:40;99019.97;;;0.40;89.21
29907;BME280;16776;50.958;10.994;2023-03-03T04:08:09;99025.84;;;0.39;89.28
29907;BME280;16776;50.958;10.994;2023-03-03T04:10:35;99036.75;;;0.35;88.98
29907;BME280;16776;50.958;10.994;2023-03-03T04:13:02;99034.16;;;0.32;89.35
29907;BME280;16776;50.958;10.994;2023-03-03T04:15:29;99027.34;;;0.29;89.53
29907;BME280;16776;50.958;10.994;2023-03-03T04:17:55;99029.03;;;0.29;89.38
29907;BME280;16776;50.958;10.994;2023-03-03T04:20:22;99046.69;;;0.25;89.50
29907;BME280;16776;50.958;10.994;2023-03-03T04:22:48;99050.88;;;0.25;89.52
29907;BME280;16776;50.958;10.994;2023-03-03T04:25:16;99046.69;;;0.25;89.74
29907;BME280;16776;50.958;10.994;2023-03-03T04:27:43;99048.28;;;0.20;89.20
29907;BME280;16776;50.958;10.994;2023-03-03T04:30:11;99048.31;;;0.22;89.51
29907;BME280;16776;50.958;10.994;2023-03-03T04:32:38;99054.19;;;0.21;89.29
29907;BME280;16776;50.958;10.994;2023-03-03T04:35:05;99054.19;;;0.21;89.52
29907;BME280;16776;50.958;10.994;2023-03-03T04:37:32;99055.00;;;0.20;89.36
29907;BME280;16776;50.958;10.994;2023-03-03T04:39:59;99058.38;;;0.19;89.77
29907;BME280;16776;50.958;10.994;2023-03-03T04:42:27;99056.72;;;0.21;89.75
29907;BME280;16776;50.958;10.994;2023-03-03T04:44:56;99065.13;;;0.18;89.36
29907;BME280;16776;50.958;10.994;2023-03-03T04:47:23;99059.16;;;0.16;89.25
29907;BME280;16776;50.958;10.994;2023-03-03T04:49:49;99065.88;;;0.14;89.75
29907;BME280;16776;50.958;10.994;2023-03-03T04:52:16;99054.78;;;0.09;89.67
29907;BME280;16776;50.958;10.994;2023-03-03T04:54:43;99061.63;;;0.12;89.70
29907;BME280;16776;50.958;10.994;2023-03-03T04:57:09;99059.03;;;0.10;89.60
29907;BME280;16776;50.958;10.994;2023-03-03T04:59:37;99058.22;;;0.11;89.85
29907;BME280;16776;50.958;10.994;2023-03-03T05:02:04;99064.91;;;0.09;89.59
29907;BME280;16776;50.958;10.994;2023-03-03T05:04:31;99053.03;;;0.05;89.30
29907;BME280;16776;50.958;10.994;2023-03-03T05:06:57;99069.13;;;0.09;89.85
29907;BME280;16776;50.958;10.994;2023-03-03T05:09:24;99069.09;;;0.07;89.57
29907;BME280;16776;50.958;10.994;2023-03-03T05:11:51;99078.34;;;0.07;89.50
29907;BME280;16776;50.958;10.994;2023-03-03T05:14:17;99074.09;;;0.06;89.62
29907;BME280;16776;50.958;10.994;2023-03-03T05:16:46;99074.09;;;0.06;89.87
29907;BME280;16776;50.958;10.994;2023-03-03T05:19:12;99079.97;;;0.03;89.42
29907;BME280;16776;50.958;10.994;2023-03-03T05:21:42;99074.09;;;0.04;89.96
29907;BME280;16776;50.958;10.994;2023-03-03T05:24:09;99079.13;;;0.03;91.03
29907;BME280;16776;50.958;10.994;2023-03-03T05:26:36;99087.16;;;0.22;94.21
29907;BME280;16776;50.958;10.994;2023-03-03T05:29:03;99077.66;;;0.53;95.91
29907;BME280;16776;50.958;10.994;2023-03-03T05:31:30;99087.81;;;0.93;94.98
29907;BME280;16776;50.958;10.994;2023-03-03T05:33:58;99089.25;;;1.26;93.43
29907;BME280;16776;50.958;10.994;2023-03-03T05:36:26;99089.56;;;1.44;93.18
29907;BME280;16776;50.958;10.994;2023-03-03T05:38:53;99089.75;;;1.55;91.90
29907;BME280;16776;50.958;10.994;2023-03-03T05:41:19;99091.53;;;1.60;91.25
29907;BME280;16776;50.958;10.994;2023-03-03T05:43:46;99099.13;;;1.59;89.83
29907;BME280;16776;50.958;10.994;2023-03-03T05:46:13;99091.38;;;1.51;90.50
29907;BME280;16776;50.958;10.994;2023-03-03T05:48:39;99097.19;;;1.44;90.04
29907;BME280;16776;50.958;10.994;2023-03-03T05:51:07;99098.75;;;1.37;90.13
29907;BME280;16776;50.958;10.994;2023-03-03T05:53:34;99103.66;;;1.27;89.45
29907;BME280;16776;50.958;10.994;2023-03-03T05:56:00;99110.22;;;1.17;89.50
29907;BME280;16776;50.958;10.994;2023-03-03T05:58:29;99107.50;;;1.07;89.34
29907;BME280;16776;50.958;10.994;2023-03-03T06:00:56;99115.75;;;0.96;89.08
29907;BME280;16776;50.958;10.994;2023-03-03T06:03:23;99107.03;;;0.85;89.23
29907;BME280;16776;50.958;10.994;2023-03-03T06:05:49;99100.09;;;0.77;89.19
29907;BME280;16776;50.958;10.994;2023-03-03T06:08:18;99109.25;;;0.70;89.96
29907;BME280;16776;50.958;10.994;2023-03-03T06:10:47;99111.69;;;0.64;89.74
29907;BME280;16776;50.958;10.994;2023-03-03T06:13:14;99120.81;;;0.56;89.65
29907;BME280;16776;50.958;10.994;2023-03-03T06:15:41;99123.22;;;0.50;89.68
29907;BME280;16776;50.958;10.994;2023-03-03T06:18:07;99127.34;;;0.46;89.70
29907;BME280;16776;50.958;10.994;2023-03-03T06:20:35;99120.53;;;0.42;89.46
29907;BME280;16776;50.958;10.994;2023-03-03T06:23:03;99127.19;;;0.39;89.74
29907;BME280;16776;50.958;10.994;2023-03-03T06:25:30;99128.88;;;0.38;89.99
29907;BME280;16776;50.958;10.994;2023-03-03T06:27:59;99135.56;;;0.35;89.87
29907;BME280;16776;50.958;10.994;2023-03-03T06:30:26;99122.00;;;0.33;89.92
29907;BME280;16776;50.958;10.994;2023-03-03T06:32:54;99127.00;;;0.30;90.11
29907;BME280;16776;50.958;10.994;2023-03-03T06:35:21;99136.22;;;0.28;89.74
29907;BME280;16776;50.958;10.994;2023-03-03T06:37:47;99136.19;;;0.24;89.74
29907;BME280;16776;50.958;10.994;2023-03-03T06:40:15;99132.72;;;0.21;89.93
29907;BME280;16776;50.958;10.994;2023-03-03T06:42:43;99143.66;;;0.20;89.84
29907;BME280;16776;50.958;10.994;2023-03-03T06:45:10;99139.41;;;0.17;89.93
29907;BME280;16776;50.958;10.994;2023-03-03T06:47:37;99140.13;;;0.13;89.67
29907;BME280;16776;50.958;10.994;2023-03-03T06:50:04;99149.38;;;0.11;89.75
29907;BME280;16776;50.958;10.994;2023-03-03T06:52:31;99146.81;;;0.10;89.60
29907;BME280;16776;50.958;10.994;2023-03-03T06:55:00;99141.75;;;0.10;89.99
29907;BME280;16776;50.958;10.994;2023-03-03T06:57:29;99142.50;;;0.07;90.20
29907;BME280;16776;50.958;10.994;2023-03-03T07:00:05;99132.38;;;0.07;90.29
29907;BME280;16776;50.958;10.994;2023-03-03T07:02:37;99137.41;;;0.04;89.93
29907;BME280;16776;50.958;10.994;2023-03-03T07:05:10;99139.16;;;0.08;90.47
29907;BME280;16776;50.958;10.994;2023-03-03T07:07:40;99132.34;;;0.04;90.16
29907;BME280;16776;50.958;10.994;2023-03-03T07:10:15;99140.03;;;0.09;90.64
29907;BME280;16776;50.958;10.994;2023-03-03T07:12:43;99144.19;;;0.05;90.31
29907;BME280;16776;50.958;10.994;2023-03-03T07:15:15;99135.81;;;0.09;90.35
29907;BME280;16776;50.958;10.994;2023-03-03T07:17:43;99133.34;;;0.11;90.12
29907;BME280;16776;50.958;10.994;2023-03-03T07:20:18;99138.25;;;0.05;90.07
29907;BME280;16776;50.958;10.994;2023-03-03T07:22:45;99139.84;;;0.01;90.19
29907;BME280;16776;50.958;10.994;2023-03-03T07:25:19;99143.31;;;0.05;90.56
29907;BME280;16776;50.958;10.994;2023-03-03T07:27:50;99143.19;;;0.00;90.21
29907;BME280;16776;50.958;10.994;2023-03-03T07:30:24;99153.44;;;0.05;90.91
29907;BME280;16776;50.958;10.994;2023-03-03T07:32:52;99156.75;;;0.02;90.30
29907;BME280;16776;50.958;10.994;2023-03-03T07:35:35;99157.72;;;0.07;90.72
29907;BME280;16776;50.958;10.994;2023-03-03T07:38:16;99173.75;;;0.08;90.62
29907;BME280;16776;50.958;10.994;2023-03-03T07:40:47;99174.63;;;0.08;90.45
29907;BME280;16776;50.958;10.994;2023-03-03T07:43:34;99180.53;;;0.09;90.78
29907;BME280;16776;50.958;10.994;2023-03-03T07:46:21;99183.94;;;0.09;90.85
29907;BME280;16776;50.958;10.994;2023-03-03T07:48:48;99177.88;;;0.03;90.22
29907;BME280;16776;50.958;10.994;2023-03-03T07:51:19;99185.53;;;0.06;90.22
29907;BME280;16776;50.958;10.994;2023-03-03T07:53:49;99187.13;;;0.02;90.14
29907;BME280;16776;50.958;10.994;2023-03-03T07:56:25;99184.69;;;0.05;90.47
29907;BME280;16776;50.958;10.994;2023-03-03T07:58:52;99187.94;;;0.01;89.80
29907;BME280;16776;50.958;10.994;2023-03-03T08:01:34;99192.31;;;0.07;90.88
29907;BME280;16776;50.958;10.994;2023-03-03T08:04:10;99193.09;;;0.04;90.77
29907;BME280;16776;50.958;10.994;2023-03-03T08:06:43;99193.06;;;0.03;90.43
29907;BME280;16776;50.958;10.994;2023-03-03T08:09:47;99194.88;;;0.08;90.69
29907;BME280;16776;50.958;10.994;2023-03-03T08:15:20;99191.38;;;0.03;90.58
29907;BME280;16776;50.958;10.994;2023-03-03T08:17:49;99193.81;;;-0.01;90.34
29907;BME280;16776;50.958;10.994;2023-03-03T08:20:51;99209.16;;;0.05;90.71
29907;BME280;16776;50.958;10.994;2023-03-03T08:23:19;99213.97;;;-0.04;90.40
29907;BME280;16776;50.958;10.994;2023-03-03T08:25:46;99224.91;;;-0.05;90.22
29907;BME280;16776;50.958;10.994;2023-03-03T08:28:13;99221.53;;;-0.06;89.97
29907;BME280;16776;50.958;10.994;2023-03-03T08:30:41;99209.63;;;-0.10;90.44
29907;BME280;16776;50.958;10.994;2023-03-03T08:33:09;99206.31;;;-0.07;90.24
29907;BME280;16776;50.958;10.994;2023-03-03T08:35:39;99202.03;;;-0.10;90.23
29907;BME280;16776;50.958;10.994;2023-03-03T08:38:06;99194.44;;;-0.10;90.26
29907;BME280;16776;50.958;10.994;2023-03-03T08:40:33;99201.22;;;-0.09;90.35
29907;BME280;16776;50.958;10.994;2023-03-03T08:43:00;99200.34;;;-0.09;90.37
29907;BME280;16776;50.958;10.994;2023-03-03T08:45:27;99208.00;;;-0.08;90.57
29907;BME280;16776;50.958;10.994;2023-03-03T08:47:54;99199.56;;;-0.07;90.46
29907;BME280;16776;50.958;10.994;2023-03-03T08:50:22;99206.44;;;-0.03;90.73
29907;BME280;16776;50.958;10.994;2023-03-03T08:52:49;99210.63;;;-0.03;90.56
29907;BME280;16776;50.958;10.994;2023-03-03T08:55:16;99212.34;;;-0.02;90.37
29907;BME280;16776;50.958;10.994;2023-03-03T08:57:45;99215.81;;;0.01;90.41
29907;BME280;16776;50.958;10.994;2023-03-03T09:00:15;99212.41;;;0.01;90.71
29907;BME280;16776;50.958;10.994;2023-03-03T09:02:42;99222.47;;;-0.02;90.36
29907;BME280;16776;50.958;10.994;2023-03-03T09:05:09;99236.84;;;-0.01;90.35
29907;BME280;16776;50.958;10.994;2023-03-03T09:07:37;99233.47;;;-0.00;90.10
29907;BME280;16776;50.958;10.994;2023-03-03T09:10:05;99241.94;;;-0.01;90.25
29907;BME280;16776;50.958;10.994;2023-03-03T09:12:34;99244.47;;;-0.01;90.28
29907;BME280;16776;50.958;10.994;2023-03-03T09:15:11;99241.94;;;0.00;90.40
29907;BME280;16776;50.958;10.994;2023-03-03T09:17:44;99246.94;;;-0.03;90.27
29907;BME280;16776;50.958;10.994;2023-03-03T09:20:32;99237.78;;;0.02;90.93
29907;BME280;16776;50.958;10.994;2023-03-03T09:26:17;99235.19;;;0.01;90.63
29907;BME280;16776;50.958;10.994;2023-03-03T09:28:58;99236.88;;;0.00;90.20
29907;BME280;16776;50.958;10.994;2023-03-03T09:31:37;99236.81;;;-0.03;89.72
29907;BME280;16776;50.958;10.994;2023-03-03T09:34:18;99236.81;;;-0.03;89.92
29907;BME280;16776;50.958;10.994;2023-03-03T09:36:45;99238.34;;;-0.09;89.66
29907;BME280;16776;50.958;10.994;2023-03-03T09:39:18;99234.94;;;-0.10;89.75
29907;BME280;16776;50.958;10.994;2023-03-03T09:48:01;99242.28;;;-0.21;90.53
29907;BME280;16776;50.958;10.994;2023-03-03T09:50:35;99231.16;;;-0.26;91.02
29907;BME280;16776;50.958;10.994;2023-03-03T09:53:21;99239.75;;;-0.19;91.16
29907;BME280;16776;50.958;10.994;2023-03-03T09:55:56;99243.19;;;-0.17;91.29
29907;BME280;16776;50.958;10.994;2023-03-03T09:58:38;99234.94;;;-0.10;91.32
29907;BME280;16776;50.958;10.994;2023-03-03T10:01:27;99240.16;;;-0.04;91.64
29907;BME280;16776;50.958;10.994;2023-03-03T10:04:18;99229.31;;;0.02;91.51
29907;BME280;16776;50.958;10.994;2023-03-03T10:06:57;99235.28;;;0.04;91.46
29907;BME280;16776;50.958;10.994;2023-03-03T10:09:45;99238.84;;;0.10;91.57
29907;BME280;16776;50.958;10.994;2023-03-03T10:12:21;99245.63;;;0.11;91.15
29907;BME280;16776;50.958;10.994;2023-03-03T10:15:10;99240.69;;;0.17;91.67
29907;BME280;16776;50.958;10.994;2023-03-03T10:17:48;99237.31;;;0.17;91.23
29907;BME280;16776;50.958;10.994;2023-03-03T10:20:25;99243.22;;;0.17;91.42
29907;BME280;16776;50.958;10.994;2023-03-03T10:22:55;99233.97;;;0.18;91.00
29907;BME280;16776;50.958;10.994;2023-03-03T10:25:28;99248.44;;;0.23;91.31
29907;BME280;16776;50.958;10.994;2023-03-03T10:28:23;99249.41;;;0.29;91.48
29907;BME280;16776;50.958;10.994;2023-03-03T10:31:00;99241.72;;;0.25;90.91
29907;BME280;16776;50.958;10.994;2023-03-03T10:33:36;99241.75;;;0.27;90.73
29907;BME280;16776;50.958;10.994;2023-03-03T10:36:24;99241.88;;;0.32;91.01
29907;BME280;16776;50.958;10.994;2023-03-03T10:39:02;99242.72;;;0.31;91.20
29907;BME280;16776;50.958;10.994;2023-03-03T10:41:46;99241.88;;;0.32;91.17
29907;BME280;16776;50.958;10.994;2023-03-03T10:44:32;99239.31;;;0.30;91.63
29907;BME280;16776;50.958;10.994;2023-03-03T10:47:14;99249.59;;;0.36;91.41
29907;BME280;16776;50.958;10.994;2023-03-03T10:49:55;99250.47;;;0.37;91.32
29907;BME280;16776;50.958;10.994;2023-03-03T10:52:38;99247.22;;;0.42;91.67
29907;BME280;16776;50.958;10.994;2023-03-03T10:55:30;99248.94;;;0.45;91.20
29907;BME280;16776;50.958;10.994;2023-03-03T10:58:18;99244.00;;;0.49;91.30
29907;BME280;16776;50.958;10.994;2023-03-03T11:00:51;99244.81;;;0.48;91.05
29907;BME280;16776;50.958;10.994;2023-03-03T11:03:41;99250.78;;;0.52;90.92
29907;BME280;16776;50.958;10.994;2023-03-03T11:06:14;99242.28;;;0.48;90.66
29907;BME280;16776;50.958;10.994;2023-03-03T11:08:48;99244.81;;;0.48;90.56
29907;BME280;16776;50.958;10.994;2023-03-03T11:11:17;99249.13;;;0.52;91.04
29907;BME280;16776;50.958;10.994;2023-03-03T11:13:50;99243.91;;;0.46;90.76
29907;BME280;16776;50.958;10.994;2023-03-03T11:19:42;99242.44;;;0.54;91.13
29907;BME280;16776;50.958;10.994;2023-03-03T11:22:24;99243.28;;;0.55;91.49
29907;BME280;16776;50.958;10.994;2023-03-03T11:25:05;99244.16;;;0.57;91.42
29907;BME280;16776;50.958;10.994;2023-03-03T11:27:47;99239.16;;;0.60;91.52
29907;BME280;16776;50.958;10.994;2023-03-03T11:30:36;99229.88;;;0.60;91.82
29907;BME280;16776;50.958;10.994;2023-03-03T11:33:13;99235.84;;;0.62;91.46
29907;BME280;16776;50.958;10.994;2023-03-03T11:35:49;99236.78;;;0.66;91.43
29907;BME280;16776;50.958;10.994;2023-03-03T11:38:32;99225.88;;;0.70;91.47
29907;BME280;16776;50.958;10.994;2023-03-03T11:41:07;99236.00;;;0.69;91.56
29907;BME280;16776;50.958;10.994;2023-03-03T11:43:39;99195.81;;;0.48;91.45
29907;BME280;16776;50.958;10.994;2023-03-03T11:46:10;99228.41;;;0.70;92.02
29907;BME280;16776;50.958;10.994;2023-03-03T11:48:43;99239.53;;;0.77;91.29
29907;BME280;16776;50.958;10.994;2023-03-03T11:51:18;99226.03;;;0.78;91.01
29907;BME280;16776;50.958;10.994;2023-03-03T11:53:56;99232.06;;;0.81;91.35
29907;BME280;16776;50.958;10.994;2023-03-03T11:56:27;99231.16;;;0.79;91.19
29907;BME280;16776;50.958;10.994;2023-03-03T11:59:08;99233.78;;;0.84;90.80
29907;BME280;16776;50.958;10.994;2023-03-03T12:01:44;99228.69;;;0.82;91.01
29907;BME280;16776;50.958;10.994;2023-03-03T12:04:18;99227.84;;;0.82;90.76
29907;BME280;16776;50.958;10.994;2023-03-03T12:06:56;99224.47;;;0.83;91.12
29907;BME280;16776;50.958;10.994;2023-03-03T12:09:36;99220.25;;;0.83;91.25
29907;BME280;16776;50.958;10.994;2023-03-03T12:12:06;99229.50;;;0.81;91.00
29907;BME280;16776;50.958;10.994;2023-03-03T12:14:55;99222.94;;;0.89;91.52
29907;BME280;16776;50.958;10.994;2023-03-03T12:17:40;99222.94;;;0.88;91.25
29907;BME280;16776;50.958;10.994;2023-03-03T12:20:17;99210.16;;;0.85;91.66
29907;BME280;16776;50.958;10.994;2023-03-03T12:22:57;99220.47;;;0.92;91.05
29907;BME280;16776;50.958;10.994;2023-03-03T12:25:34;99215.47;;;0.95;91.73
29907;BME280;16776;50.958;10.994;2023-03-03T12:28:06;99218.03;;;0.97;91.27
29907;BME280;16776;50.958;10.994;2023-03-03T12:30:48;99212.22;;;1.02;91.31
29907;BME280;16776;50.958;10.994;2023-03-03T12:33:31;99211.41;;;1.03;91.58
29907;BME280;16776;50.958;10.994;2023-03-03T12:36:14;99214.88;;;1.07;91.76
29907;BME280;16776;50.958;10.994;2023-03-03T12:38:53;99210.69;;;1.09;91.70
29907;BME280;16776;50.958;10.994;2023-03-03T12:41:26;99205.66;;;1.11;91.39
29907;BME280;16776;50.958;10.994;2023-03-03T12:44:00;99207.38;;;1.12;91.47
29907;BME280;16776;50.958;10.994;2023-03-03T12:46:41;99207.47;;;1.18;91.54
29907;BME280;16776;50.958;10.994;2023-03-03T12:49:10;99211.66;;;1.16;90.64
29907;BME280;16776;50.958;10.994;2023-03-03T12:51:46;99199.13;;;1.23;91.53
29907;BME280;16776;50.958;10.994;2023-03-03T12:54:31;99205.97;;;1.27;91.21
29907;BME280;16776;50.958;10.994;2023-03-03T12:57:07;99199.22;;;1.28;91.36
29907;BME280;16776;50.958;10.994;2023-03-03T12:59:43;99200.16;;;1.31;91.59
29907;BME280;16776;50.958;10.994;2023-03-03T13:02:28;99205.34;;;1.37;91.53
29907;BME280;16776;50.958;10.994;2023-03-03T13:05:04;99201.13;;;1.38;91.24
29907;BME280;16776;50.958;10.994;2023-03-03T13:07:38;99200.31;;;1.40;90.64
29907;BME280;16776;50.958;10.994;2023-03-03T13:10:18;99197.06;;;1.46;90.64
29907;BME280;16776;50.958;10.994;2023-03-03T13:12:53;99194.50;;;1.46;90.25
29907;BME280;16776;50.958;10.994;2023-03-03T13:15:26;99185.16;;;1.43;90.61
29907;BME280;16776;50.958;10.994;2023-03-03T13:18:00;99191.97;;;1.46;89.92
29907;BME280;16776;50.958;10.994;2023-03-03T13:20:35;99196.09;;;1.41;89.96
29907;BME280;16776;50.958;10.994;2023-03-03T13:23:07;99196.78;;;1.34;89.12
29907;BME280;16776;50.958;10.994;2023-03-03T13:25:58;99195.97;;;1.33;89.39
29907;BME280;16776;50.958;10.994;2023-03-03T13:28:31;99196.56;;;1.22;89.81
29907;BME280;16776;50.958;10.994;2023-03-03T13:31:02;99190.50;;;1.14;89.88
29907;BME280;16776;50.958;10.994;2023-03-03T13:33:33;99182.81;;;1.11;89.24
29907;BME280;16776;50.958;10.994;2023-03-03T13:36:02;99194.56;;;1.06;89.74
29907;BME280;16776;50.958;10.994;2023-03-03T13:38:32;99191.13;;;1.03;89.88
29907;BME280;16776;50.958;10.994;2023-03-03T13:41:06;99191.94;;;1.02;90.17
29907;BME280;16776;50.958;10.994;2023-03-03T13:43:42;99189.44;;;1.04;90.47